createdAt,value
2022-12-31T00:02:26.777Z,2.17
2022-12-31T00:05:29.544Z,2.00
2022-12-31T00:08:32.952Z,2.03
2022-12-31T00:11:35.152Z,2.13
2022-12-31T00:14:38.205Z,1.95
2022-12-31T00:17:40.814Z,2.45
2022-12-31T00:20:44.071Z,2.70
2022-12-31T00:23:46.254Z,2.05
2022-12-31T00:26:49.208Z,2.17
2022-12-31T00:29:52.278Z,1.67
2022-12-31T00:32:54.429Z,1.67
2022-12-31T00:35:56.943Z,1.83
2022-12-31T00:38:59.385Z,1.90
2022-12-31T00:42:02.166Z,1.98
2022-12-31T00:45:05.456Z,2.58
2022-12-31T00:48:08.039Z,1.70
2022-12-31T00:51:10.752Z,1.90
2022-12-31T00:54:12.994Z,1.50
2022-12-31T00:57:15.104Z,1.80
2022-12-31T01:00:17.766Z,1.20
2022-12-31T01:03:20.569Z,1.40
2022-12-31T01:06:23.252Z,1.73
2022-12-31T01:09:27.022Z,1.52
2022-12-31T01:12:30.297Z,1.77
2022-12-31T01:15:32.890Z,1.88
2022-12-31T01:18:35.615Z,1.83
2022-12-31T01:21:37.767Z,1.48
2022-12-31T01:24:40.548Z,1.42
2022-12-31T01:27:43.575Z,1.35
2022-12-31T01:30:46.574Z,1.75
2022-12-31T01:33:48.827Z,1.73
2022-12-31T01:36:51.373Z,1.45
2022-12-31T01:39:54.582Z,1.30
2022-12-31T01:42:57.438Z,1.50
2022-12-31T01:46:00.398Z,1.17
2022-12-31T01:49:04.002Z,1.05
2022-12-31T01:52:07.206Z,1.70
2022-12-31T01:55:10.116Z,1.52
2022-12-31T01:58:12.725Z,1.25
2022-12-31T02:01:15.412Z,1.48
2022-12-31T02:04:18.430Z,1.05
2022-12-31T02:07:21.501Z,1.13
2022-12-31T02:10:24.184Z,1.30
2022-12-31T02:13:27.257Z,1.30
2022-12-31T02:16:29.761Z,1.00
2022-12-31T02:19:32.386Z,1.52
2022-12-31T02:22:34.835Z,0.90
2022-12-31T02:25:37.822Z,1.13
2022-12-31T02:28:40.182Z,1.30
2022-12-31T02:31:42.398Z,1.48
2022-12-31T02:34:45.031Z,1.20
2022-12-31T02:37:48.008Z,1.02
2022-12-31T02:40:50.771Z,1.13
2022-12-31T02:43:53.432Z,1.02
2022-12-31T02:46:57.060Z,1.73
2022-12-31T02:49:59.493Z,0.98
2022-12-31T02:53:02.449Z,1.73
2022-12-31T02:56:05.191Z,1.40
2022-12-31T02:59:07.577Z,1.05
2022-12-31T03:02:10.497Z,1.05
2022-12-31T03:05:13.222Z,1.50
2022-12-31T03:08:16.431Z,1.25
2022-12-31T03:11:18.788Z,1.70
2022-12-31T03:14:21.732Z,1.75
2022-12-31T03:17:24.482Z,1.38
2022-12-31T03:20:27.461Z,1.60
2022-12-31T03:23:31.251Z,1.40
2022-12-31T03:26:33.413Z,1.35
2022-12-31T03:29:36.680Z,1.23
2022-12-31T03:32:39.125Z,1.15
2022-12-31T03:35:41.929Z,1.25
2022-12-31T03:38:48.448Z,1.30
2022-12-31T03:41:53.707Z,0.95
2022-12-31T03:44:56.628Z,1.25
2022-12-31T03:47:59.879Z,1.13
2022-12-31T03:51:02.314Z,1.38
2022-12-31T03:54:05.186Z,1.05
2022-12-31T03:57:08.005Z,1.30
2022-12-31T04:00:10.504Z,0.80
2022-12-31T04:03:13.411Z,2.08
2022-12-31T04:06:15.547Z,1.40
2022-12-31T04:09:18.109Z,1.13
2022-12-31T04:12:20.687Z,1.80
2022-12-31T04:15:22.979Z,0.88
2022-12-31T04:18:25.657Z,1.23
2022-12-31T04:21:34.657Z,0.85
2022-12-31T04:24:37.737Z,1.60
2022-12-31T04:27:40.129Z,1.17
2022-12-31T04:30:44.122Z,1.23
2022-12-31T04:33:46.760Z,1.65
2022-12-31T04:36:49.357Z,0.80
2022-12-31T04:39:51.866Z,1.02
2022-12-31T04:42:54.840Z,1.55
2022-12-31T04:45:57.812Z,1.25
2022-12-31T04:49:00.124Z,0.93
2022-12-31T04:52:03.009Z,0.70
2022-12-31T04:55:05.798Z,1.20
2022-12-31T04:58:08.529Z,0.90
2022-12-31T05:01:11.061Z,0.98
2022-12-31T05:04:13.666Z,1.27
2022-12-31T05:07:15.780Z,1.15
2022-12-31T05:10:18.615Z,0.90
2022-12-31T05:13:23.326Z,1.05
2022-12-31T05:16:31.666Z,1.65
2022-12-31T05:19:34.828Z,1.05
2022-12-31T05:22:37.307Z,1.63
2022-12-31T05:25:40.408Z,1.15
2022-12-31T05:28:43.378Z,1.35
2022-12-31T05:31:45.720Z,0.85
2022-12-31T05:34:48.412Z,1.50
2022-12-31T05:37:50.940Z,1.08
2022-12-31T05:40:53.702Z,0.95
2022-12-31T05:43:57.380Z,1.13
2022-12-31T05:47:00.431Z,1.55
2022-12-31T05:50:03.483Z,0.75
2022-12-31T05:53:05.988Z,0.75
2022-12-31T05:56:08.941Z,0.95
2022-12-31T05:59:11.916Z,1.50
2022-12-31T06:02:14.963Z,1.20
2022-12-31T06:05:22.630Z,0.88
2022-12-31T06:08:28.677Z,1.30
2022-12-31T06:11:32.059Z,1.08
2022-12-31T06:14:38.518Z,0.68
2022-12-31T06:17:42.528Z,1.25
2022-12-31T06:20:45.603Z,1.40
2022-12-31T06:23:48.533Z,0.90
2022-12-31T06:26:50.868Z,1.80
2022-12-31T06:29:55.039Z,0.70
2022-12-31T06:32:57.848Z,0.75
2022-12-31T06:36:00.076Z,0.95
2022-12-31T06:39:02.645Z,1.27
2022-12-31T06:42:05.118Z,1.00
2022-12-31T06:45:07.224Z,0.82
2022-12-31T06:48:09.881Z,1.02
2022-12-31T06:51:17.007Z,0.88
2022-12-31T06:54:19.531Z,0.60
2022-12-31T06:57:21.908Z,0.68
2022-12-31T07:00:24.980Z,0.70
2022-12-31T07:03:27.883Z,0.90
2022-12-31T07:06:30.640Z,0.55
2022-12-31T07:09:33.626Z,1.13
2022-12-31T07:12:36.854Z,0.55
2022-12-31T07:15:39.261Z,0.85
2022-12-31T07:18:42.353Z,1.10
2022-12-31T07:21:45.539Z,1.17
2022-12-31T07:24:48.857Z,1.10
2022-12-31T07:27:52.006Z,0.88
2022-12-31T07:30:54.307Z,1.05
2022-12-31T07:33:57.104Z,1.00
2022-12-31T07:36:59.702Z,1.00
2022-12-31T07:40:02.145Z,1.05
2022-12-31T07:43:04.567Z,1.33
2022-12-31T07:46:07.592Z,0.70
2022-12-31T07:49:10.556Z,0.70
2022-12-31T07:52:13.463Z,0.82
2022-12-31T07:55:16.321Z,0.88
2022-12-31T07:58:19.168Z,0.85
2022-12-31T08:01:21.966Z,1.20
2022-12-31T08:04:24.432Z,0.75
2022-12-31T08:07:26.850Z,0.60
2022-12-31T08:10:29.333Z,0.93
2022-12-31T08:13:32.291Z,1.42
2022-12-31T08:16:35.165Z,0.50
2022-12-31T08:19:38.337Z,1.10
2022-12-31T08:22:40.771Z,0.70
2022-12-31T08:25:43.192Z,0.85
2022-12-31T08:28:46.125Z,0.75
2022-12-31T08:31:49.442Z,0.75
2022-12-31T08:34:52.254Z,1.05
2022-12-31T08:37:55.486Z,0.70
2022-12-31T08:40:58.434Z,0.93
2022-12-31T08:44:01.251Z,0.80
2022-12-31T08:47:04.348Z,0.40
2022-12-31T08:50:06.964Z,0.60
2022-12-31T08:53:09.170Z,0.90
2022-12-31T08:56:12.103Z,0.45
2022-12-31T08:59:14.855Z,1.17
2022-12-31T09:02:17.431Z,0.43
2022-12-31T09:05:20.115Z,0.43
2022-12-31T09:08:22.597Z,0.65
2022-12-31T09:11:24.719Z,0.63
2022-12-31T09:14:27.307Z,0.98
2022-12-31T09:17:29.873Z,0.35
2022-12-31T09:20:42.718Z,0.82
2022-12-31T09:23:46.050Z,0.70
2022-12-31T09:26:48.788Z,1.20
2022-12-31T09:29:51.427Z,0.65
2022-12-31T09:33:00.594Z,0.52
2022-12-31T09:36:03.575Z,0.60
2022-12-31T09:39:05.760Z,0.43
2022-12-31T09:42:08.804Z,0.90
2022-12-31T09:45:12.309Z,0.85
2022-12-31T09:48:15.331Z,1.08
2022-12-31T09:51:23.371Z,0.60
2022-12-31T09:54:27.536Z,0.50
2022-12-31T09:57:30.250Z,1.20
2022-12-31T10:00:32.391Z,0.40
2022-12-31T10:03:34.963Z,0.75
2022-12-31T10:06:38.548Z,0.85
2022-12-31T10:09:41.671Z,0.88
2022-12-31T10:12:44.126Z,0.80
2022-12-31T10:15:46.821Z,1.27
2022-12-31T10:18:49.342Z,0.68
2022-12-31T10:21:52.921Z,0.60
2022-12-31T10:24:55.060Z,1.02
2022-12-31T10:27:57.733Z,0.70
2022-12-31T10:31:01.455Z,1.35
2022-12-31T10:34:04.763Z,1.10
2022-12-31T10:37:07.558Z,0.73
2022-12-31T10:40:10.538Z,1.40
2022-12-31T10:43:13.466Z,1.15
2022-12-31T10:46:22.474Z,0.73
2022-12-31T10:49:25.461Z,0.75
2022-12-31T10:52:28.179Z,1.02
2022-12-31T10:55:31.218Z,1.20
2022-12-31T10:58:34.337Z,1.00
2022-12-31T11:01:38.038Z,1.88
2022-12-31T11:04:40.929Z,1.63
2022-12-31T11:07:43.562Z,1.30
2022-12-31T11:10:46.571Z,1.90
2022-12-31T11:13:49.024Z,1.30
2022-12-31T11:16:51.628Z,0.98
2022-12-31T11:19:53.983Z,1.95
2022-12-31T11:22:56.721Z,1.02
2022-12-31T11:25:59.146Z,1.20
2022-12-31T11:29:02.010Z,1.33
2022-12-31T11:32:04.160Z,2.03
2022-12-31T11:35:06.827Z,1.40
2022-12-31T11:38:09.406Z,0.57
2022-12-31T11:41:11.595Z,1.60
2022-12-31T11:44:14.021Z,1.80
2022-12-31T11:47:17.471Z,1.20
2022-12-31T11:50:20.372Z,1.75
2022-12-31T11:53:23.001Z,2.25
2022-12-31T11:56:26.618Z,1.77
2022-12-31T11:59:29.598Z,1.50
2022-12-31T12:02:32.472Z,1.67
2022-12-31T12:05:35.456Z,1.20
2022-12-31T12:08:38.435Z,1.77
2022-12-31T12:11:41.433Z,1.65
2022-12-31T12:14:44.215Z,2.63
2022-12-31T12:17:47.632Z,1.50
2022-12-31T12:20:50.072Z,2.85
2022-12-31T12:23:53.205Z,1.90
2022-12-31T12:26:56.123Z,1.67
2022-12-31T12:29:59.127Z,1.63
2022-12-31T12:33:01.758Z,1.80
2022-12-31T12:36:04.097Z,1.45
2022-12-31T12:39:06.790Z,2.78
2022-12-31T12:42:09.406Z,1.75
2022-12-31T12:45:12.684Z,1.80
2022-12-31T12:48:14.869Z,1.02
2022-12-31T12:51:17.893Z,2.83
2022-12-31T12:54:20.923Z,1.52
2022-12-31T12:57:24.134Z,1.70
2022-12-31T13:00:26.998Z,2.05
2022-12-31T13:03:29.837Z,2.00
2022-12-31T13:06:32.471Z,2.35
2022-12-31T13:09:35.117Z,1.95
2022-12-31T13:13:13.861Z,2.72
2022-12-31T13:16:00.674Z,2.67
2022-12-31T13:19:03.629Z,2.30
2022-12-31T13:22:06.783Z,2.55
2022-12-31T13:25:09.708Z,3.00
2022-12-31T13:28:11.647Z,2.38
2022-12-31T13:31:14.401Z,2.67
2022-12-31T13:34:17.053Z,3.08
2022-12-31T13:37:19.668Z,3.17
2022-12-31T13:40:22.549Z,2.10
2022-12-31T13:43:25.372Z,2.65
2022-12-31T13:46:27.513Z,4.63
2022-12-31T13:49:30.158Z,2.50
2022-12-31T13:52:32.809Z,2.90
2022-12-31T13:55:35.781Z,1.83
2022-12-31T13:58:38.167Z,2.00
2022-12-31T14:01:40.501Z,2.17
2022-12-31T14:04:43.077Z,2.17
2022-12-31T14:07:46.441Z,2.58
2022-12-31T14:10:49.744Z,2.42
2022-12-31T14:13:52.651Z,1.38
2022-12-31T14:16:54.932Z,2.17
2022-12-31T14:19:57.634Z,1.98
2022-12-31T14:23:00.185Z,2.33
2022-12-31T14:26:02.900Z,2.15
2022-12-31T14:29:05.442Z,2.45
2022-12-31T14:32:08.313Z,2.20
2022-12-31T14:35:11.346Z,2.60
2022-12-31T14:38:14.632Z,2.70
2022-12-31T14:41:17.052Z,2.88
2022-12-31T14:44:19.694Z,3.53
2022-12-31T14:47:22.162Z,2.38
2022-12-31T14:50:24.982Z,2.33
2022-12-31T14:53:27.966Z,5.03
2022-12-31T14:56:31.080Z,2.63
2022-12-31T14:59:38.786Z,3.20
2022-12-31T15:02:43.421Z,3.03
2022-12-31T15:05:46.908Z,3.60
2022-12-31T15:08:49.901Z,2.78
2022-12-31T15:11:52.543Z,2.42
2022-12-31T15:14:55.113Z,3.50
2022-12-31T15:17:57.869Z,4.43
2022-12-31T15:21:01.103Z,2.72
2022-12-31T15:24:03.931Z,2.90
2022-12-31T15:27:07.180Z,3.65
2022-12-31T15:30:10.194Z,3.03
2022-12-31T15:33:12.883Z,2.75
2022-12-31T15:36:15.484Z,6.15
2022-12-31T15:39:18.213Z,2.80
2022-12-31T15:42:37.958Z,4.00
2022-12-31T15:45:42.553Z,3.78
2022-12-31T15:48:47.922Z,3.85
2022-12-31T15:51:54.470Z,3.53
2022-12-31T15:54:56.721Z,3.83
2022-12-31T15:57:59.234Z,3.35
2022-12-31T16:01:02.512Z,3.80
2022-12-31T16:04:05.728Z,4.07
2022-12-31T16:07:09.015Z,3.05
2022-12-31T16:10:12.312Z,4.55
2022-12-31T16:13:15.257Z,5.22
2022-12-31T16:16:18.313Z,4.28
2022-12-31T16:19:21.581Z,2.92
2022-12-31T16:22:23.996Z,3.83
2022-12-31T16:25:31.567Z,3.25
2022-12-31T16:28:35.438Z,4.13
2022-12-31T16:31:38.372Z,3.30
2022-12-31T16:34:41.092Z,4.78
2022-12-31T16:37:43.691Z,4.35
2022-12-31T16:40:46.551Z,3.72
2022-12-31T16:43:49.195Z,3.85
2022-12-31T16:46:51.739Z,5.30
2022-12-31T16:49:54.216Z,4.65
2022-12-31T16:52:57.191Z,4.20
2022-12-31T16:56:00.061Z,3.50
2022-12-31T16:59:03.029Z,4.18
2022-12-31T17:02:06.280Z,4.72
2022-12-31T17:05:09.175Z,3.70
2022-12-31T17:08:12.060Z,4.57
2022-12-31T17:11:18.551Z,3.58
2022-12-31T17:14:26.671Z,4.15
2022-12-31T17:17:30.579Z,4.93
2022-12-31T17:20:33.460Z,5.05
2022-12-31T17:23:35.455Z,6.05
2022-12-31T17:26:38.458Z,5.82
2022-12-31T17:29:41.814Z,4.43
2022-12-31T17:32:44.866Z,5.97
2022-12-31T17:35:47.591Z,4.97
2022-12-31T17:38:50.709Z,5.13
2022-12-31T17:41:53.601Z,5.25
2022-12-31T17:44:56.622Z,4.40
2022-12-31T17:48:00.287Z,6.95
2022-12-31T17:51:03.315Z,5.38
2022-12-31T17:54:06.728Z,6.13
2022-12-31T17:57:09.269Z,4.65
2022-12-31T18:00:12.249Z,4.72
2022-12-31T18:03:14.949Z,5.20
2022-12-31T18:06:18.155Z,4.72
2022-12-31T18:09:20.986Z,5.00
2022-12-31T18:12:23.997Z,5.55
2022-12-31T18:15:26.800Z,5.43
2022-12-31T18:18:29.952Z,6.00
2022-12-31T18:21:33.143Z,5.30
2022-12-31T18:24:35.685Z,6.47
2022-12-31T18:27:38.319Z,5.90
2022-12-31T18:30:40.955Z,6.70
2022-12-31T18:33:43.857Z,5.82
2022-12-31T18:36:46.640Z,6.63
2022-12-31T18:39:49.296Z,5.97
2022-12-31T18:42:52.072Z,6.32
2022-12-31T18:45:54.666Z,7.43
2022-12-31T18:48:57.669Z,6.63
2022-12-31T18:52:00.377Z,6.15
2022-12-31T18:55:02.917Z,7.47
2022-12-31T18:58:05.967Z,8.40
2022-12-31T19:01:09.400Z,6.72
2022-12-31T19:04:12.328Z,6.47
2022-12-31T19:07:15.385Z,6.22
2022-12-31T19:10:17.557Z,7.28
2022-12-31T19:13:20.216Z,6.75
2022-12-31T19:16:23.237Z,7.57
2022-12-31T19:19:27.259Z,7.88
2022-12-31T19:22:30.294Z,8.27
2022-12-31T19:25:32.541Z,7.68
2022-12-31T19:28:35.146Z,8.05
2022-12-31T19:31:37.709Z,7.18
2022-12-31T19:34:40.970Z,7.28
2022-12-31T19:37:43.738Z,6.80
2022-12-31T19:40:46.306Z,7.88
2022-12-31T19:43:48.795Z,7.95
2022-12-31T19:46:51.520Z,7.07
2022-12-31T19:49:55.067Z,7.07
2022-12-31T19:52:59.087Z,8.55
2022-12-31T19:56:02.072Z,8.02
2022-12-31T19:59:04.994Z,7.15
2022-12-31T20:02:07.187Z,7.55
2022-12-31T20:05:10.027Z,8.32
2022-12-31T20:08:12.272Z,7.13
2022-12-31T20:11:14.918Z,7.88
2022-12-31T20:14:17.384Z,6.72
2022-12-31T20:17:19.809Z,7.70
2022-12-31T20:20:22.024Z,8.77
2022-12-31T20:23:24.174Z,7.95
2022-12-31T20:26:26.529Z,8.38
2022-12-31T20:29:29.559Z,7.72
2022-12-31T20:32:32.565Z,6.97
2022-12-31T20:35:35.258Z,7.43
2022-12-31T20:38:38.997Z,8.35
2022-12-31T20:41:41.491Z,7.80
2022-12-31T20:44:43.965Z,8.75
2022-12-31T20:47:47.172Z,8.10
2022-12-31T20:50:50.064Z,7.63
2022-12-31T20:53:52.667Z,7.75
2022-12-31T20:56:55.520Z,8.27
2022-12-31T20:59:58.728Z,8.25
2022-12-31T21:03:14.363Z,9.02
2022-12-31T21:06:21.888Z,8.77
2022-12-31T21:09:24.761Z,9.73
2022-12-31T21:12:26.953Z,8.95
2022-12-31T21:15:29.588Z,8.13
2022-12-31T21:18:32.796Z,8.73
2022-12-31T21:21:35.549Z,7.85
2022-12-31T21:24:38.111Z,8.45
2022-12-31T21:27:40.737Z,8.43
2022-12-31T21:30:43.962Z,7.43
2022-12-31T21:33:47.194Z,8.10
2022-12-31T21:36:50.535Z,7.70
2022-12-31T21:39:53.154Z,7.97
2022-12-31T21:42:56.126Z,7.63
2022-12-31T21:45:58.448Z,9.48
2022-12-31T21:49:00.784Z,10.35
2022-12-31T21:52:03.871Z,8.07
2022-12-31T21:55:06.801Z,9.10
2022-12-31T21:58:26.467Z,7.03
2022-12-31T22:01:29.892Z,8.70
2022-12-31T22:07:54.821Z,9.25
2022-12-31T22:10:58.479Z,6.38
2022-12-31T22:14:01.276Z,8.27
2022-12-31T22:17:03.778Z,9.40
2022-12-31T22:20:26.467Z,7.60
2022-12-31T22:23:29.085Z,7.97
2022-12-31T22:26:31.479Z,9.25
2022-12-31T22:29:34.184Z,6.28
2022-12-31T22:32:36.972Z,9.48
2022-12-31T22:35:39.866Z,9.00
2022-12-31T22:38:42.827Z,8.80
2022-12-31T22:41:45.574Z,9.57
2022-12-31T22:44:48.321Z,9.00
2022-12-31T22:47:50.814Z,9.77
2022-12-31T22:50:53.054Z,7.65
2022-12-31T22:53:55.971Z,8.10
2022-12-31T22:56:59.136Z,9.23
2022-12-31T23:00:01.947Z,9.95
2022-12-31T23:03:05.032Z,8.45
2022-12-31T23:06:07.850Z,7.30
2022-12-31T23:09:11.059Z,8.95
2022-12-31T23:12:13.562Z,8.43
2022-12-31T23:15:16.140Z,8.95
2022-12-31T23:18:18.390Z,11.38
2022-12-31T23:21:20.561Z,10.15
2022-12-31T23:24:26.601Z,10.95
2022-12-31T23:27:29.464Z,13.32
2022-12-31T23:30:32.728Z,13.32
2022-12-31T23:33:35.929Z,18.10
2022-12-31T23:36:38.815Z,18.02
2022-12-31T23:39:40.986Z,16.40
2022-12-31T23:42:43.241Z,18.63
2022-12-31T23:45:45.506Z,16.17
2022-12-31T23:48:48.203Z,16.40
2022-12-31T23:51:50.629Z,18.10
2022-12-31T23:54:53.485Z,16.55
2022-12-31T23:57:56.400Z,20.88
